Time;durP1;ratioP1;P1;durP2;ratioP2;P2;SDS_P1;SDS_P2;PMS_P1;PMS_P2;Temp;Humidity;BMP_temperature;BMP_pressure;BME280_temperature;BME280_humidity;BME280_pressure;Samples;Min_cycle;Max_cycle;Signal;HPM_P1;HPM_P2
2022/07/18 00:00:08;;;;;;;;;;;;;;;28.17;41.97;99888.13;2074157;28;19914;-66
2022/07/18 00:01:08;;;;;;;;;;;;;;;28.18;42.08;99889.81;2072207;28;19944;-66
2022/07/18 00:02:08;;;;;;;;;;;;;;;28.17;41.98;99888.13;2068226;28;20486;-66
2022/07/18 00:03:09;;;;;;;;;;;;;;;28.17;42.05;99888.13;2071737;28;19913;-66
2022/07/18 00:04:09;;;;;;;;;;;;;;;28.18;42.18;99892.59;2075208;28;20024;-66
2022/07/18 00:05:09;;;;;;;;;;;;;;;28.18;42.17;99889.81;2071250;28;20372;-66
2022/07/18 00:06:10;;;;;;;;;;;;;;;28.17;42.08;99887.25;2072509;28;19959;-67
2022/07/18 00:07:10;;;;;;;;;;;;;;;28.17;41.98;99885.34;2076013;28;19913;-66
2022/07/18 00:08:11;;;;;;;;;;;;;;;28.17;42.12;99882.59;2078496;28;19948;-66
2022/07/18 00:09:11;;;;;;;;;;;;;;;28.18;42.03;99884.28;2075167;28;19936;-66
2022/07/18 00:10:11;;;;;;;;;;;;;;;28.18;41.95;99887.03;2075929;28;20314;-66
2022/07/18 00:11:11;;;;;;;;;;;;;;;28.18;42.03;99883.44;2071648;28;19921;-66
2022/07/18 00:12:12;;;;;;;;;;;;;;;28.17;42.17;99888.13;2076004;28;20383;-66
2022/07/18 00:13:12;;;;;;;;;;;;;;;28.18;41.85;99889.81;2078020;28;19909;-66
2022/07/18 00:14:12;;;;;;;;;;;;;;;28.17;42.09;99888.13;2075684;28;20682;-66
2022/07/18 00:15:13;;;;;;;;;;;;;;;28.18;42.17;99886.19;2075303;28;20022;-66
2022/07/18 00:16:13;;;;;;;;;;;;;;;28.17;41.98;99888.13;2069621;28;19918;-66
2022/07/18 00:17:13;;;;;;;;;;;;;;;28.18;42.05;99883.44;2073909;28;19917;-66
2022/07/18 00:18:14;;;;;;;;;;;;;;;28.17;42.12;99888.13;2074838;28;20426;-66
2022/07/18 00:19:14;;;;;;;;;;;;;;;28.17;42.21;99885.34;2068763;28;19913;-66
2022/07/18 00:20:14;;;;;;;;;;;;;;;28.17;42.18;99888.13;2066910;28;19918;-66
2022/07/18 00:21:15;;;;;;;;;;;;;;;28.17;42.00;99887.25;2067613;28;19914;-66
2022/07/18 00:22:15;;;;;;;;;;;;;;;28.17;42.18;99888.13;2069244;28;19920;-66
2022/07/18 00:23:16;;;;;;;;;;;;;;;28.18;42.21;99891.75;2073562;28;19943;-66
2022/07/18 00:24:16;;;;;;;;;;;;;;;28.17;42.02;99893.66;2068246;28;19913;-66
2022/07/18 00:25:16;;;;;;;;;;;;;;;28.17;42.22;99890.91;2067198;28;20029;-65
2022/07/18 00:26:17;;;;;;;;;;;;;;;28.17;42.12;99890.03;2073362;28;19913;-66
2022/07/18 00:27:17;;;;;;;;;;;;;;;28.17;42.24;99890.91;2068256;28;19917;-66
2022/07/18 00:28:17;;;;;;;;;;;;;;;28.17;42.09;99884.47;2072061;28;19913;-66
2022/07/18 00:29:18;;;;;;;;;;;;;;;28.16;42.16;99889.16;2071164;28;19920;-65
2022/07/18 00:30:18;;;;;;;;;;;;;;;28.17;42.17;99896.44;2074552;28;19923;-66
2022/07/18 00:31:18;;;;;;;;;;;;;;;28.16;42.00;99891.94;2076099;28;19921;-66
2022/07/18 00:32:19;;;;;;;;;;;;;;;28.16;42.29;99891.94;2076821;28;19925;-66
2022/07/18 00:33:19;;;;;;;;;;;;;;;28.15;42.17;99890.25;2076927;28;19963;-65
2022/07/18 00:34:20;;;;;;;;;;;;;;;28.17;42.12;99890.03;2076762;28;20330;-67
2022/07/18 00:35:20;;;;;;;;;;;;;;;28.17;42.29;99890.03;2075102;28;19917;-67
2022/07/18 00:36:20;;;;;;;;;;;;;;;28.16;42.23;99883.63;2074251;28;19922;-66
2022/07/18 00:37:21;;;;;;;;;;;;;;;28.16;42.11;99878.09;2068316;28;19930;-66
2022/07/18 00:38:21;;;;;;;;;;;;;;;28.16;42.22;99885.56;2068303;28;19917;-67
2022/07/18 00:39:21;;;;;;;;;;;;;;;28.16;42.27;99886.41;2067918;28;20466;-67
2022/07/18 00:40:22;;;;;;;;;;;;;;;28.16;42.13;99886.41;2073941;28;19970;-67
2022/07/18 00:41:22;;;;;;;;;;;;;;;28.17;42.30;99888.13;2075020;28;19921;-67
2022/07/18 00:42:22;;;;;;;;;;;;;;;28.16;42.25;99885.56;2076536;28;19913;-67
2022/07/18 00:43:23;;;;;;;;;;;;;;;28.16;42.36;99891.94;2075804;28;19913;-67
2022/07/18 00:44:25;;;;;;;;;;;;;;;28.16;42.37;99891.94;2075272;28;19917;-67
2022/07/18 00:45:25;;;;;;;;;;;;;;;28.16;42.38;99886.41;2075043;28;20331;-67
2022/07/18 00:46:26;;;;;;;;;;;;;;;28.17;42.22;99893.66;2074799;28;19960;-67
2022/07/18 00:47:26;;;;;;;;;;;;;;;28.16;42.27;99889.16;2076008;28;19917;-67
2022/07/18 00:48:27;;;;;;;;;;;;;;;28.14;42.25;99885.75;2069893;28;19984;-67
2022/07/18 00:49:27;;;;;;;;;;;;;;;28.14;42.27;99876.59;2071053;28;19921;-67
2022/07/18 00:50:28;;;;;;;;;;;;;;;28.14;42.26;99888.53;2075739;28;20316;-66
2022/07/18 00:51:28;;;;;;;;;;;;;;;28.14;42.24;99880.22;2074596;28;19917;-67
2022/07/18 00:52:28;;;;;;;;;;;;;;;28.16;42.20;99880.00;2070289;28;19909;-67
2022/07/18 00:53:29;;;;;;;;;;;;;;;28.15;42.31;99876.41;2075811;28;20008;-67
2022/07/18 00:54:31;;;;;;;;;;;;;;;28.14;42.25;99877.44;2072769;28;19909;-67
2022/07/18 00:55:31;;;;;;;;;;;;;;;28.15;42.40;99879.16;2075733;28;19920;-66
2022/07/18 00:56:32;;;;;;;;;;;;;;;28.15;42.20;99879.16;2072571;28;19920;-67
2022/07/18 00:57:32;;;;;;;;;;;;;;;28.14;42.33;99877.44;2076023;28;19917;-67
2022/07/18 00:58:33;;;;;;;;;;;;;;;28.14;42.23;99871.06;2072004;28;20409;-67
2022/07/18 01:02:11;;;;;;;;;;;;;;;28.13;42.47;99872.97;2067943;28;20007;-67
2022/07/18 01:03:11;;;;;;;;;;;;;;;28.15;42.40;99873.63;2073776;28;19909;-67
2022/07/18 01:04:13;;;;;;;;;;;;;;;28.14;42.25;99874.69;2075789;28;20330;-66
2022/07/18 01:05:14;;;;;;;;;;;;;;;28.13;42.35;99875.75;2075802;28;19979;-67
2022/07/18 01:06:14;;;;;;;;;;;;;;;28.14;42.41;99871.06;2075252;28;19917;-67
2022/07/18 01:07:14;;;;;;;;;;;;;;;28.13;42.27;99875.75;2075988;28;19940;-66
2022/07/18 01:08:15;;;;;;;;;;;;;;;28.13;42.35;99872.97;2075045;28;20292;-67
2022/07/18 01:09:16;;;;;;;;;;;;;;;28.14;42.34;99871.06;2074787;28;19924;-67
2022/07/18 01:10:18;;;;;;;;;;;;;;;28.14;42.50;99873.84;2067032;28;19923;-67
2022/07/18 01:11:18;;;;;;;;;;;;;;;28.14;42.35;99883.00;2074146;28;20006;-67
2022/07/18 01:12:19;;;;;;;;;;;;;;;28.15;42.42;99879.16;2076180;28;19913;-66
2022/07/18 01:13:20;;;;;;;;;;;;;;;28.15;42.39;99876.41;2073247;28;20014;-67
2022/07/18 01:14:20;;;;;;;;;;;;;;;28.15;42.38;99879.16;2076119;28;20019;-67
2022/07/18 01:15:20;;;;;;;;;;;;;;;28.15;42.33;99876.41;2072445;28;20022;-66
2022/07/18 01:16:21;;;;;;;;;;;;;;;28.14;42.28;99876.59;2075709;28;19963;-67
2022/07/18 01:17:21;;;;;;;;;;;;;;;28.13;42.53;99881.28;2075251;28;19921;-66
2022/07/18 01:18:21;;;;;;;;;;;;;;;28.13;42.33;99872.97;2077125;28;19916;-67
2022/07/18 01:19:21;;;;;;;;;;;;;;;28.14;42.34;99874.69;2084068;28;19971;-67
2022/07/18 01:20:26;;;;;;;;;;;;;;;28.14;42.33;99876.59;2071680;28;19980;-66
2022/07/18 01:21:26;;;;;;;;;;;;;;;28.13;42.36;99870.22;2069144;28;19974;-67
2022/07/18 01:22:27;;;;;;;;;;;;;;;28.14;42.28;99876.59;2079314;28;19913;-68
2022/07/18 01:23:27;;;;;;;;;;;;;;;28.14;42.38;99871.06;2075543;28;19959;-67
2022/07/18 01:24:27;;;;;;;;;;;;;;;28.13;42.26;99874.91;2073157;28;19928;-67
2022/07/18 01:25:28;;;;;;;;;;;;;;;28.13;42.56;99870.22;2075654;28;20368;-66
2022/07/18 01:26:28;;;;;;;;;;;;;;;28.13;42.49;99875.75;2074150;28;19917;-66
2022/07/18 01:27:28;;;;;;;;;;;;;;;28.13;42.32;99870.22;2079037;28;20272;-66
2022/07/18 01:28:28;;;;;;;;;;;;;;;28.13;42.22;99874.91;2077238;28;20000;-66
2022/07/18 01:29:29;;;;;;;;;;;;;;;28.13;42.33;99872.13;2074858;28;19917;-66
2022/07/18 01:30:29;;;;;;;;;;;;;;;28.13;42.34;99874.91;2076727;28;19913;-66
2022/07/18 01:31:33;;;;;;;;;;;;;;;28.13;42.48;99870.22;2076571;28;19964;-67
2022/07/18 01:32:33;;;;;;;;;;;;;;;28.13;42.42;99863.81;2084812;28;19963;-66
2022/07/18 01:33:34;;;;;;;;;;;;;;;28.14;42.32;99865.53;2075444;28;19966;-66
2022/07/18 01:34:34;;;;;;;;;;;;;;;28.12;42.56;99864.88;2075639;28;20376;-66
2022/07/18 01:35:34;;;;;;;;;;;;;;;28.12;42.52;99862.94;2074190;28;19917;-67
2022/07/18 01:36:35;;;;;;;;;;;;;;;28.12;42.41;99862.94;2069985;28;20320;-67
2022/07/18 01:37:35;;;;;;;;;;;;;;;28.11;42.42;99861.25;2067292;28;19925;-67
2022/07/18 01:38:36;;;;;;;;;;;;;;;28.12;42.55;99862.09;2073830;28;19917;-65
2022/07/18 01:39:36;;;;;;;;;;;;;;;28.12;42.55;99865.72;2074020;28;19923;-66
2022/07/18 01:40:36;;;;;;;;;;;;;;;28.12;42.52;99862.94;2067826;28;19914;-66
2022/07/18 01:41:37;;;;;;;;;;;;;;;28.12;42.61;99862.94;2068240;28;19949;-66
2022/07/18 01:42:37;;;;;;;;;;;;;;;28.12;42.38;99857.41;2072043;28;20507;-67
2022/07/18 01:43:41;;;;;;;;;;;;;;;28.11;42.53;99864.03;2068226;28;20337;-67
2022/07/18 01:44:41;;;;;;;;;;;;;;;28.12;42.63;99860.19;2071551;28;19917;-67
2022/07/18 01:45:42;;;;;;;;;;;;;;;28.11;42.55;99855.72;2075190;28;19917;-66
2022/07/18 01:46:42;;;;;;;;;;;;;;;28.11;42.57;99861.25;2067507;28;19918;-67
2022/07/18 01:47:42;;;;;;;;;;;;;;;28.11;42.60;99861.25;2068382;28;20020;-66
2022/07/18 01:48:43;;;;;;;;;;;;;;;28.11;42.68;99855.72;2072589;28;19918;-67
2022/07/18 01:49:43;;;;;;;;;;;;;;;28.11;42.62;99860.41;2069573;28;20432;-67
2022/07/18 01:50:44;;;;;;;;;;;;;;;28.10;42.50;99864.22;2073953;28;20335;-67
2022/07/18 01:51:45;;;;;;;;;;;;;;;28.12;42.64;99859.34;2073578;28;19984;-67
2022/07/18 01:52:45;;;;;;;;;;;;;;;28.12;42.83;99856.56;2074439;28;19983;-67
2022/07/18 01:53:53;;;;;;;;;;;;;;;28.11;42.71;99858.50;2074880;28;19921;-66
2022/07/18 01:54:54;;;;;;;;;;;;;;;28.11;42.67;99861.25;2074325;28;19982;-67
2022/07/18 01:55:54;;;;;;;;;;;;;;;28.11;42.74;99861.25;2074735;28;19917;-67
2022/07/18 01:56:55;;;;;;;;;;;;;;;28.11;42.67;99860.41;2070378;28;20115;-66
2022/07/18 01:57:55;;;;;;;;;;;;;;;28.11;42.67;99858.50;2069404;28;19914;-67
2022/07/18 01:58:56;;;;;;;;;;;;;;;28.10;42.65;99856.78;2074692;28;20300;-67
2022/07/18 01:59:56;;;;;;;;;;;;;;;28.11;42.74;99855.72;2074133;28;19935;-67
2022/07/18 02:00:57;;;;;;;;;;;;;;;28.10;42.71;99851.25;2074880;28;19924;-67
2022/07/18 02:01:57;;;;;;;;;;;;;;;28.10;42.73;99851.25;2068774;28;20021;-67
2022/07/18 02:02:58;;;;;;;;;;;;;;;28.10;42.77;99859.56;2068583;28;19917;-66
2022/07/18 02:03:58;;;;;;;;;;;;;;;28.10;42.76;99851.25;2074423;28;19983;-67
2022/07/18 02:05:03;;;;;;;;;;;;;;;28.10;42.57;99847.59;2072787;28;19914;-67
2022/07/18 02:06:03;;;;;;;;;;;;;;;28.09;42.65;99849.53;2073843;28;19921;-67
2022/07/18 02:07:04;;;;;;;;;;;;;;;28.10;42.61;99851.25;2072766;28;20007;-67
2022/07/18 02:08:04;;;;;;;;;;;;;;;28.10;42.82;99853.16;2073362;28;20377;-66
2022/07/18 02:09:06;;;;;;;;;;;;;;;28.09;42.87;99845.91;2075383;28;20687;-67
2022/07/18 02:10:06;;;;;;;;;;;;;;;28.09;42.91;99845.91;2072030;28;20813;-66
2022/07/18 02:11:06;;;;;;;;;;;;;;;28.08;42.81;99850.63;2067896;28;19917;-67
2022/07/18 02:12:07;;;;;;;;;;;;;;;28.09;42.80;99857.84;2066908;28;19963;-67
2022/07/18 02:13:07;;;;;;;;;;;;;;;28.10;42.83;99858.69;2071116;28;20396;-67
2022/07/18 02:14:07;;;;;;;;;;;;;;;28.09;42.86;99845.91;2075147;28;20441;-67
2022/07/18 02:15:08;;;;;;;;;;;;;;;28.09;42.84;99852.31;2074297;28;20356;-67
2022/07/18 02:16:09;;;;;;;;;;;;;;;28.10;42.72;99853.16;2074577;28;20011;-67
2022/07/18 02:17:09;;;;;;;;;;;;;;;28.10;42.90;99848.47;2067677;28;19918;-67
2022/07/18 02:18:10;;;;;;;;;;;;;;;28.09;42.77;99845.91;2071003;28;19913;-67
2022/07/18 02:19:11;;;;;;;;;;;;;;;28.10;42.78;99848.47;2075591;28;19920;-67
2022/07/18 02:20:12;;;;;;;;;;;;;;;28.09;42.72;99846.75;2074594;28;20265;-67
2022/07/18 02:21:13;;;;;;;;;;;;;;;28.09;42.76;99852.31;2074394;28;19917;-67
2022/07/18 02:22:14;;;;;;;;;;;;;;;28.09;42.69;99852.31;2075220;28;19909;-66
2022/07/18 02:23:14;;;;;;;;;;;;;;;28.10;42.73;99856.78;2070581;28;19914;-67
2022/07/18 02:24:14;;;;;;;;;;;;;;;28.10;42.93;99848.47;2068314;28;19964;-67
2022/07/18 02:25:14;;;;;;;;;;;;;;;28.09;42.76;99852.31;2068847;28;19960;-67
2022/07/18 02:26:15;;;;;;;;;;;;;;;28.09;42.87;99846.75;2075149;28;20367;-67
2022/07/18 02:27:15;;;;;;;;;;;;;;;28.09;42.97;99851.47;2070691;28;20384;-67
2022/07/18 02:28:15;;;;;;;;;;;;;;;28.10;43.06;99848.47;2067632;28;20264;-66
2022/07/18 02:29:16;;;;;;;;;;;;;;;28.10;42.91;99848.47;2068652;28;19922;-67
2022/07/18 02:30:16;;;;;;;;;;;;;;;28.09;43.01;99846.75;2075203;28;19920;-66
2022/07/18 02:31:16;;;;;;;;;;;;;;;28.09;42.97;99846.75;2074504;28;19921;-67
2022/07/18 02:32:17;;;;;;;;;;;;;;;28.09;43.07;99846.75;2072491;28;20539;-66
2022/07/18 02:33:18;;;;;;;;;;;;;;;28.09;42.98;99841.22;2074164;28;20304;-67
2022/07/18 02:34:18;;;;;;;;;;;;;;;28.09;42.93;99844.00;2071084;28;19939;-66
2022/07/18 02:35:19;;;;;;;;;;;;;;;28.09;43.07;99844.00;2073112;28;20003;-66
2022/07/18 02:36:19;;;;;;;;;;;;;;;28.09;42.90;99841.22;2074726;28;19913;-66
2022/07/18 02:37:19;;;;;;;;;;;;;;;28.08;42.93;99836.75;2074905;28;20260;-66
2022/07/18 02:38:20;;;;;;;;;;;;;;;28.08;42.91;99839.53;2079092;28;19917;-67
2022/07/18 02:39:20;;;;;;;;;;;;;;;28.08;43.05;99839.53;2075090;28;19921;-66
2022/07/18 02:40:20;;;;;;;;;;;;;;;28.08;43.06;99839.53;2074632;28;19921;-67
2022/07/18 02:41:21;;;;;;;;;;;;;;;28.07;42.96;99832.25;2072796;28;19914;-66
2022/07/18 02:42:21;;;;;;;;;;;;;;;28.09;43.05;99840.38;2069188;28;19913;-66
2022/07/18 02:43:21;;;;;;;;;;;;;;;28.09;42.91;99840.38;2073670;28;19905;-67
2022/07/18 02:44:22;;;;;;;;;;;;;;;28.09;43.02;99835.69;2076722;28;19913;-67
2022/07/18 02:45:22;;;;;;;;;;;;;;;28.09;43.01;99846.75;2074193;28;19914;-66
2022/07/18 02:46:22;;;;;;;;;;;;;;;28.09;42.99;99829.28;2071024;28;20422;-67
2022/07/18 02:47:23;;;;;;;;;;;;;;;28.09;42.97;99832.06;2075543;28;20386;-66
2022/07/18 02:48:23;;;;;;;;;;;;;;;28.08;43.10;99827.59;2072746;28;19921;-67
2022/07/18 02:49:26;;;;;;;;;;;;;;;28.07;43.12;99832.25;2070607;28;19920;-67
2022/07/18 02:50:27;;;;;;;;;;;;;;;28.08;43.06;99833.16;2069870;28;19913;-67
2022/07/18 02:51:27;;;;;;;;;;;;;;;28.07;43.04;99832.25;2074329;28;19921;-67
2022/07/18 02:52:27;;;;;;;;;;;;;;;28.07;43.09;99825.88;2076659;28;19917;-67
2022/07/18 02:53:28;;;;;;;;;;;;;;;28.07;43.13;99832.25;2076610;28;19939;-67
2022/07/18 02:54:29;;;;;;;;;;;;;;;28.07;43.16;99826.72;2075925;28;19921;-67
2022/07/18 02:55:29;;;;;;;;;;;;;;;28.08;43.12;99827.59;2076232;28;20006;-67
2022/07/18 02:56:30;;;;;;;;;;;;;;;28.09;43.13;99829.28;2075501;28;19917;-66
2022/07/18 02:57:30;;;;;;;;;;;;;;;28.07;42.92;99826.72;2072896;28;19917;-67
2022/07/18 02:58:32;;;;;;;;;;;;;;;28.08;43.05;99828.44;2074253;28;19921;-66
2022/07/18 02:59:32;;;;;;;;;;;;;;;28.07;42.93;99828.66;2075447;28;19922;-66
2022/07/18 03:00:33;;;;;;;;;;;;;;;28.07;43.17;99823.97;2076389;28;19917;-67
2022/07/18 03:01:33;;;;;;;;;;;;;;;28.07;43.17;99820.34;2076658;28;19923;-66
2022/07/18 03:02:33;;;;;;;;;;;;;;;28.08;43.22;99824.84;2076877;28;19962;-67
2022/07/18 03:03:34;;;;;;;;;;;;;;;28.08;43.07;99822.06;2076583;28;19917;-67
2022/07/18 03:04:34;;;;;;;;;;;;;;;28.07;42.99;99815.66;2076454;28;20698;-67
2022/07/18 03:05:34;;;;;;;;;;;;;;;28.06;43.06;99825.03;2072590;28;19917;-67
2022/07/18 03:06:35;;;;;;;;;;;;;;;28.08;43.07;99819.28;2076609;28;20109;-66
2022/07/18 03:07:35;;;;;;;;;;;;;;;28.07;43.08;99818.41;2081486;28;20604;-66
2022/07/18 03:08:35;;;;;;;;;;;;;;;28.08;43.20;99816.53;2085029;28;20302;-66
2022/07/18 03:09:36;;;;;;;;;;;;;;;28.06;43.05;99808.41;2076188;28;19917;-66
2022/07/18 03:10:36;;;;;;;;;;;;;;;28.06;43.09;99811.19;2075680;28;19913;-66
2022/07/18 03:11:36;;;;;;;;;;;;;;;28.06;42.99;99811.19;2076808;28;19975;-67
2022/07/18 03:12:37;;;;;;;;;;;;;;;28.05;43.13;99812.25;2081576;28;19921;-67
2022/07/18 03:13:37;;;;;;;;;;;;;;;28.06;43.13;99813.97;2079726;28;20003;-67
2022/07/18 03:14:37;;;;;;;;;;;;;;;28.08;43.00;99813.75;2076637;28;20192;-67
2022/07/18 03:15:38;;;;;;;;;;;;;;;28.06;42.98;99813.97;2078334;28;20188;-67
2022/07/18 03:16:39;;;;;;;;;;;;;;;28.06;43.03;99802.88;2077579;28;19975;-66
2022/07/18 03:17:39;;;;;;;;;;;;;;;28.05;43.25;99806.72;2077093;28;19920;-67
2022/07/18 03:18:39;;;;;;;;;;;;;;;28.06;42.96;99816.72;2075242;28;19917;-66
2022/07/18 03:19:40;;;;;;;;;;;;;;;28.06;43.09;99813.09;2074009;28;19921;-67
2022/07/18 03:20:40;;;;;;;;;;;;;;;28.06;43.18;99807.56;2079669;28;20298;-67
2022/07/18 03:21:41;;;;;;;;;;;;;;;28.05;43.10;99809.50;2075936;28;19921;-67
2022/07/18 03:22:41;;;;;;;;;;;;;;;28.05;43.30;99806.72;2076808;28;20048;-66
2022/07/18 03:23:41;;;;;;;;;;;;;;;28.06;43.13;99810.34;2072236;28;20660;-66
2022/07/18 03:24:41;;;;;;;;;;;;;;;28.06;43.19;99813.97;2076344;28;19917;-67
2022/07/18 03:25:42;;;;;;;;;;;;;;;28.06;43.06;99813.09;2075914;28;19974;-67
2022/07/18 03:26:42;;;;;;;;;;;;;;;28.06;43.06;99802.88;2078017;28;19920;-66
2022/07/18 03:27:42;;;;;;;;;;;;;;;28.05;43.18;99806.72;2076691;28;20770;-67
2022/07/18 03:28:43;;;;;;;;;;;;;;;28.06;43.07;99800.09;2076653;28;20407;-66
2022/07/18 03:29:43;;;;;;;;;;;;;;;28.05;43.15;99800.31;2076085;28;19921;-67
2022/07/18 03:30:43;;;;;;;;;;;;;;;28.06;43.15;99802.88;2072882;28;19913;-67
2022/07/18 03:31:43;;;;;;;;;;;;;;;28.05;43.18;99795.66;2074800;28;19921;-67
2022/07/18 03:32:44;;;;;;;;;;;;;;;28.06;43.07;99799.25;2076412;28;19920;-66
2022/07/18 03:33:44;;;;;;;;;;;;;;;28.05;43.26;99798.41;2076675;28;19940;-67
2022/07/18 03:34:44;;;;;;;;;;;;;;;28.05;42.97;99795.66;2079475;28;19928;-67
2022/07/18 03:35:45;;;;;;;;;;;;;;;28.05;43.20;99803.94;2076897;28;20481;-67
2022/07/18 03:36:45;;;;;;;;;;;;;;;28.05;43.00;99798.41;2076012;28;19921;-67
2022/07/18 03:37:45;;;;;;;;;;;;;;;28.05;42.92;99798.41;2075987;28;19921;-67
2022/07/18 03:38:46;;;;;;;;;;;;;;;28.05;43.25;99795.66;2070275;28;19972;-67
2022/07/18 03:39:47;;;;;;;;;;;;;;;28.06;43.07;99802.03;2074097;28;19920;-66
2022/07/18 03:40:47;;;;;;;;;;;;;;;28.05;43.21;99801.19;2076515;28;19913;-66
2022/07/18 03:41:47;;;;;;;;;;;;;;;28.06;43.20;99802.03;2076603;28;19913;-67
2022/07/18 03:42:48;;;;;;;;;;;;;;;28.05;43.17;99801.19;2074293;28;20577;-67
2022/07/18 03:43:48;;;;;;;;;;;;;;;28.05;43.14;99801.19;2070363;28;20303;-67
2022/07/18 03:44:48;;;;;;;;;;;;;;;28.05;43.31;99797.53;2074290;28;20289;-67
2022/07/18 03:45:48;;;;;;;;;;;;;;;28.04;43.24;99796.69;2076359;28;20363;-66
2022/07/18 03:46:51;;;;;;;;;;;;;;;28.05;43.32;99801.19;2069195;28;19914;-66
2022/07/18 03:47:51;;;;;;;;;;;;;;;28.06;43.17;99802.03;2072903;28;19943;-66
2022/07/18 03:48:52;;;;;;;;;;;;;;;28.05;43.28;99801.19;2076735;28;19952;-66
2022/07/18 03:49:52;;;;;;;;;;;;;;;28.05;43.29;99795.66;2076425;28;20012;-67
2022/07/18 03:50:52;;;;;;;;;;;;;;;28.04;43.35;99802.22;2075780;28;19913;-67
2022/07/18 03:51:55;;;;;;;;;;;;;;;28.05;43.31;99798.41;2076095;28;20000;-67
2022/07/18 03:52:55;;;;;;;;;;;;;;;28.05;43.28;99794.75;2077103;28;19921;-65
2022/07/18 03:53:56;;;;;;;;;;;;;;;28.04;43.42;99795.84;2075794;28;19991;-65
2022/07/18 03:54:56;;;;;;;;;;;;;;;28.03;43.23;99792.22;2076616;28;19913;-66
2022/07/18 03:55:56;;;;;;;;;;;;;;;28.04;43.30;99799.47;2075658;28;19917;-66
2022/07/18 03:56:57;;;;;;;;;;;;;;;28.04;43.43;99793.91;2076023;28;19913;-66
2022/07/18 03:57:57;;;;;;;;;;;;;;;28.03;43.44;99786.69;2074735;28;19984;-66
2022/07/18 03:58:57;;;;;;;;;;;;;;;28.04;43.26;99788.38;2076536;28;20020;-66
2022/07/18 03:59:57;;;;;;;;;;;;;;;28.04;43.33;99788.38;2069035;28;19921;-67
2022/07/18 04:00:58;;;;;;;;;;;;;;;28.04;43.35;99793.91;2074961;28;19924;-66
2022/07/18 04:01:58;;;;;;;;;;;;;;;28.05;43.43;99795.66;2076742;28;19913;-66
2022/07/18 04:02:58;;;;;;;;;;;;;;;28.04;43.47;99799.47;2075680;28;19913;-66
2022/07/18 04:03:59;;;;;;;;;;;;;;;28.03;43.25;99786.69;2076273;28;20368;-66
2022/07/18 04:04:59;;;;;;;;;;;;;;;28.02;43.25;99793.28;2075995;28;19961;-66
2022/07/18 04:05:59;;;;;;;;;;;;;;;28.03;43.25;99792.22;2075099;28;19909;-65
2022/07/18 04:07:00;;;;;;;;;;;;;;;28.04;43.40;99793.06;2072989;28;20010;-66
2022/07/18 04:08:00;;;;;;;;;;;;;;;28.03;43.38;99792.22;2076070;28;19917;-66
2022/07/18 04:09:00;;;;;;;;;;;;;;;28.04;43.51;99793.91;2075518;28;19917;-66
2022/07/18 04:10:01;;;;;;;;;;;;;;;28.03;43.44;99797.78;2072669;28;19920;-66
2022/07/18 04:11:01;;;;;;;;;;;;;;;28.02;43.42;99790.50;2068547;28;19960;-66
2022/07/18 04:12:01;;;;;;;;;;;;;;;28.03;43.43;99786.69;2072153;28;20000;-66
2022/07/18 04:13:02;;;;;;;;;;;;;;;28.03;43.36;99797.78;2075719;28;19916;-66
2022/07/18 04:14:02;;;;;;;;;;;;;;;28.03;43.41;99788.59;2075525;28;20763;-66
2022/07/18 04:15:03;;;;;;;;;;;;;;;28.03;43.40;99796.91;2075912;28;19921;-66
2022/07/18 04:16:03;;;;;;;;;;;;;;;28.03;43.32;99796.91;2076189;28;19963;-67
2022/07/18 04:17:04;;;;;;;;;;;;;;;28.02;43.60;99793.28;2071765;28;19928;-66
2022/07/18 04:18:04;;;;;;;;;;;;;;;28.03;43.51;99796.91;2075439;28;19941;-66
2022/07/18 04:19:05;;;;;;;;;;;;;;;28.03;43.44;99795.00;2075506;28;20521;-66
2022/07/18 04:20:07;;;;;;;;;;;;;;;28.03;43.50;99796.91;2075850;28;19917;-66
2022/07/18 04:21:07;;;;;;;;;;;;;;;28.02;43.59;99793.28;2074210;28;20283;-66
2022/07/18 04:22:07;;;;;;;;;;;;;;;28.02;43.54;99797.97;2068758;28;19918;-66
2022/07/18 04:23:09;;;;;;;;;;;;;;;28.01;43.62;99797.13;2072488;28;19920;-66
2022/07/18 04:24:10;;;;;;;;;;;;;;;28.02;43.60;99800.75;2071337;28;19917;-66
2022/07/18 04:25:11;;;;;;;;;;;;;;;28.01;43.56;99794.38;2071370;28;19917;-66
2022/07/18 04:26:11;;;;;;;;;;;;;;;28.02;43.32;99795.19;2067458;28;20377;-66
2022/07/18 04:27:12;;;;;;;;;;;;;;;28.01;43.35;99794.38;2075811;28;19917;-66
2022/07/18 04:28:13;;;;;;;;;;;;;;;28.00;43.47;99795.41;2075896;28;19936;-67
2022/07/18 04:29:13;;;;;;;;;;;;;;;28.02;43.48;99797.97;2074738;28;19951;-66
2022/07/18 04:30:14;;;;;;;;;;;;;;;28.02;43.58;99800.75;2074541;28;19920;-66
2022/07/18 04:31:14;;;;;;;;;;;;;;;28.01;43.32;99799.91;2075679;28;20403;-66
2022/07/18 04:32:15;;;;;;;;;;;;;;;28.01;43.59;99799.91;2076028;28;20079;-66
2022/07/18 04:33:15;;;;;;;;;;;;;;;28.01;43.52;99799.91;2075778;28;19936;-66
2022/07/18 04:34:15;;;;;;;;;;;;;;;28.00;43.42;99801.81;2073834;28;19918;-66
2022/07/18 04:35:16;;;;;;;;;;;;;;;28.01;43.38;99805.44;2076390;28;19917;-66
2022/07/18 04:36:18;;;;;;;;;;;;;;;28.01;43.45;99799.91;2075283;28;19995;-66
2022/07/18 04:37:18;;;;;;;;;;;;;;;28.00;43.55;99804.59;2074896;28;19921;-66
2022/07/18 04:38:18;;;;;;;;;;;;;;;28.00;43.46;99803.72;2073298;28;20013;-66
2022/07/18 04:39:19;;;;;;;;;;;;;;;28.00;43.43;99800.94;2072993;28;19960;-66
2022/07/18 04:40:19;;;;;;;;;;;;;;;28.00;43.52;99801.81;2076455;28;19913;-66
2022/07/18 04:41:22;;;;;;;;;;;;;;;28.00;43.66;99798.19;2075728;28;19920;-66
2022/07/18 04:42:22;;;;;;;;;;;;;;;28.00;43.49;99798.19;2076037;28;20369;-66
2022/07/18 04:43:22;;;;;;;;;;;;;;;28.00;43.59;99799.06;2075014;28;19913;-66
2022/07/18 04:44:23;;;;;;;;;;;;;;;28.00;43.57;99792.63;2070934;28;19987;-67
2022/07/18 04:45:23;;;;;;;;;;;;;;;28.02;43.48;99806.28;2071720;28;19946;-66
2022/07/18 04:46:23;;;;;;;;;;;;;;;28.00;43.46;99800.94;2075386;28;19923;-66
2022/07/18 04:47:25;;;;;;;;;;;;;;;27.99;43.47;99800.09;2075732;28;19917;-66
2022/07/18 04:48:25;;;;;;;;;;;;;;;27.99;43.53;99802.88;2068442;28;19917;-66
2022/07/18 04:49:25;;;;;;;;;;;;;;;28.00;43.48;99803.72;2073365;28;19913;-66
2022/07/18 04:50:26;;;;;;;;;;;;;;;28.00;43.43;99806.50;2069192;28;19920;-66
2022/07/18 04:51:26;;;;;;;;;;;;;;;28.00;43.61;99803.72;2075942;28;19966;-66
2022/07/18 04:52:26;;;;;;;;;;;;;;;28.00;43.34;99803.72;2074631;28;19956;-66
2022/07/18 04:53:27;;;;;;;;;;;;;;;28.00;43.57;99798.19;2075871;28;19947;-66
2022/07/18 04:54:27;;;;;;;;;;;;;;;28.00;43.42;99803.72;2073376;28;20421;-66
2022/07/18 04:55:28;;;;;;;;;;;;;;;28.00;43.60;99806.50;2074588;28;19921;-66
2022/07/18 04:56:28;;;;;;;;;;;;;;;27.99;43.57;99808.41;2069622;28;19918;-66
2022/07/18 04:57:29;;;;;;;;;;;;;;;28.00;43.48;99803.72;2073636;28;19924;-66
2022/07/18 04:58:29;;;;;;;;;;;;;;;27.99;43.61;99804.81;2074471;28;19913;-66
2022/07/18 04:59:29;;;;;;;;;;;;;;;28.00;43.42;99803.72;2076156;28;20407;-66
2022/07/18 05:00:30;;;;;;;;;;;;;;;27.98;43.60;99806.72;2074722;28;19954;-66
2022/07/18 05:01:31;;;;;;;;;;;;;;;27.99;43.61;99807.56;2076443;28;20309;-67
2022/07/18 05:02:31;;;;;;;;;;;;;;;27.98;43.61;99812.25;2071596;28;20004;-66
2022/07/18 05:03:31;;;;;;;;;;;;;;;27.99;43.68;99807.56;2080521;28;19924;-66
2022/07/18 05:04:32;;;;;;;;;;;;;;;27.99;43.64;99802.03;2077527;28;19920;-66
2022/07/18 05:05:32;;;;;;;;;;;;;;;27.98;43.50;99803.09;2076471;28;20362;-66
2022/07/18 05:06:32;;;;;;;;;;;;;;;27.98;43.67;99811.41;2075658;28;20374;-66
2022/07/18 05:07:32;;;;;;;;;;;;;;;27.97;43.78;99802.22;2075825;28;20221;-66
2022/07/18 05:08:33;;;;;;;;;;;;;;;27.98;43.60;99805.88;2073582;28;19948;-66
2022/07/18 05:09:33;;;;;;;;;;;;;;;27.98;43.71;99803.09;2068621;28;20723;-66
2022/07/18 05:10:33;;;;;;;;;;;;;;;27.98;43.57;99805.88;2068252;28;19928;-66
2022/07/18 05:11:34;;;;;;;;;;;;;;;27.97;43.50;99802.22;2075938;28;19967;-65
2022/07/18 05:12:35;;;;;;;;;;;;;;;27.98;43.83;99806.72;2071271;28;20477;-66
2022/07/18 05:13:35;;;;;;;;;;;;;;;27.97;43.82;99807.78;2074049;28;19917;-66
2022/07/18 05:14:36;;;;;;;;;;;;;;;27.98;43.70;99811.41;2076134;28;20429;-66
2022/07/18 05:15:36;;;;;;;;;;;;;;;27.97;43.68;99804.16;2076015;28;19923;-66
2022/07/18 05:16:36;;;;;;;;;;;;;;;27.98;43.62;99806.72;2074738;28;20654;-66
2022/07/18 05:17:38;;;;;;;;;;;;;;;27.97;43.72;99804.16;2072684;28;20391;-66